Gearhart, Oregon
Current Conditions -  °F | °C
As of 7:04 PM on Sunday 23 Nov 2014 (Local Time) from KAST Reporting Station
Haze Haze  
Wind Chill:   Ceiling: 1400
Heat Index:   Visibility: 0.75mi
Dew Point:   Wind: 3mph
Humidity: 96%   Direction: 100°E
Pressure: 30.3"   Gusts: NA
Location:  45.8905°N, 123.667°W
Report Text: KAST 240304Z AUTO 10003KT 3/4SM BR VV014 05/04 A3030 RMK AO2 T00500044
Loading
Personal Weather Stations






























Interactive Weather Map New forecast layout! Learn more

10-Day Weather Forecast

Advertisements
Track Severe Weather on mobile